createdAt,value
2022-08-23T00:00:37.534Z,101248.09
2022-08-23T00:05:41.377Z,101256.78
2022-08-23T00:10:46.459Z,101242.72
2022-08-23T00:15:50.476Z,101250.50
2022-08-23T00:20:54.224Z,101245.16
2022-08-23T00:26:01.867Z,101234.63
2022-08-23T00:31:06.024Z,101231.94
2022-08-23T00:36:09.973Z,101240.72
2022-08-23T00:41:15.048Z,101235.41
2022-08-23T00:46:56.017Z,101233.59
2022-08-23T00:52:07.704Z,101230.06
2022-08-23T00:57:16.067Z,101239.69
2022-08-23T01:02:20.393Z,101250.25
2022-08-23T01:07:35.892Z,101264.31
2022-08-23T01:12:46.522Z,101260.00
2022-08-23T01:17:55.650Z,101266.09
2022-08-23T01:23:03.154Z,101267.75
2022-08-23T01:28:08.389Z,101259.09
2022-08-23T01:33:12.458Z,101260.00
2022-08-23T01:38:16.956Z,101265.25
2022-08-23T01:43:23.802Z,101260.91
2022-08-23T01:48:28.005Z,101259.12
2022-08-23T01:53:32.822Z,101260.84
2022-08-23T01:58:38.306Z,101259.06
2022-08-23T02:03:42.303Z,101255.53
2022-08-23T02:09:04.459Z,101257.22
2022-08-23T02:14:12.165Z,101259.84
2022-08-23T02:19:18.027Z,101255.38
2022-08-23T02:24:25.226Z,101254.44
2022-08-23T02:29:31.183Z,101253.50
2022-08-23T02:34:37.257Z,101251.63
2022-08-23T02:39:42.505Z,101252.41
2022-08-23T02:44:48.325Z,101242.75
2022-08-23T02:49:53.667Z,101256.66
2022-08-23T02:54:58.404Z,101266.19
2022-08-23T03:00:05.173Z,101263.50
2022-08-23T03:05:10.438Z,101265.22
2022-08-23T03:10:16.350Z,101274.84
2022-08-23T03:15:22.375Z,101259.09
2022-08-23T03:20:26.260Z,101263.47
2022-08-23T03:25:30.364Z,101265.19
2022-08-23T03:30:37.553Z,101263.44
2022-08-23T03:35:42.427Z,101260.78
2022-08-23T03:40:47.438Z,101259.03
2022-08-23T03:45:54.138Z,101261.66
2022-08-23T03:50:58.536Z,101266.97
2022-08-23T03:56:02.538Z,101263.53
2022-08-23T04:01:07.614Z,101271.47
2022-08-23T04:06:11.714Z,101267.19
2022-08-23T04:11:16.311Z,101264.63
2022-08-23T04:16:22.802Z,101272.50
2022-08-23T04:21:27.649Z,101283.81
2022-08-23T04:26:31.437Z,101283.75
2022-08-23T04:31:36.934Z,101282.00
2022-08-23T04:36:46.004Z,101281.09
2022-08-23T04:42:15.019Z,101287.22
2022-08-23T04:47:20.889Z,101295.13
2022-08-23T04:52:25.311Z,101300.38
2022-08-23T04:57:29.733Z,101314.41
2022-08-23T05:02:34.805Z,101313.59
2022-08-23T05:07:42.495Z,101320.66
2022-08-23T05:12:47.224Z,101308.41
2022-08-23T05:17:52.891Z,101317.06
2022-08-23T05:22:56.682Z,101313.62
2022-08-23T05:28:01.114Z,101325.03
2022-08-23T05:33:06.870Z,101330.34
2022-08-23T05:38:10.837Z,101340.97
2022-08-23T05:43:14.759Z,101348.94
2022-08-23T05:48:20.005Z,101360.38
2022-08-23T05:53:23.783Z,101355.19
2022-08-23T05:58:27.858Z,101356.13
2022-08-23T06:03:33.079Z,101351.78
2022-08-23T06:08:38.972Z,101346.56
2022-08-23T06:13:44.961Z,101346.63
2022-08-23T06:18:51.295Z,101356.28
2022-08-23T06:23:57.343Z,101352.84
2022-08-23T06:29:03.867Z,101357.28
2022-08-23T06:34:10.306Z,101364.38
2022-08-23T06:39:15.996Z,101358.34
2022-08-23T06:44:21.201Z,101360.19
2022-08-23T06:49:27.692Z,101357.69
2022-08-23T06:54:34.677Z,101356.00
2022-08-23T06:59:41.361Z,101349.16
2022-08-23T07:04:53.704Z,101350.16
2022-08-23T07:09:57.880Z,101357.28
2022-08-23T07:15:01.706Z,101360.94
2022-08-23T07:20:08.018Z,101375.97
2022-08-23T07:25:12.274Z,101380.44
2022-08-23T07:30:16.202Z,101382.34
2022-08-23T07:35:22.447Z,101382.50
2022-08-23T07:40:27.795Z,101388.72
2022-08-23T07:45:31.917Z,101383.53
2022-08-23T07:50:40.762Z,101392.38
2022-08-23T07:56:00.965Z,101397.72
2022-08-23T08:01:13.166Z,101404.88
2022-08-23T08:06:22.551Z,101404.06
2022-08-23T08:11:34.497Z,101403.25
2022-08-23T08:16:44.657Z,101409.44
2022-08-23T08:21:51.365Z,101408.62
2022-08-23T08:26:55.357Z,101415.69
2022-08-23T08:31:59.454Z,101413.03
2022-08-23T08:37:04.642Z,101419.19
2022-08-23T08:42:25.452Z,101420.06
2022-08-23T08:47:34.534Z,101428.00
2022-08-23T08:52:44.266Z,101429.78
2022-08-23T08:57:54.946Z,101435.88
2022-08-23T09:03:02.710Z,101432.31
2022-08-23T09:08:25.562Z,101436.66
2022-08-23T09:14:00.370Z,101433.09
2022-08-23T09:19:05.759Z,101439.97
2022-08-23T09:24:11.096Z,101438.09
2022-08-23T09:29:23.457Z,101439.81
2022-08-23T09:34:42.011Z,101441.59
2022-08-23T09:39:50.759Z,101443.25
2022-08-23T09:44:56.383Z,101434.38
2022-08-23T09:50:11.167Z,101436.00
2022-08-23T09:55:31.815Z,101431.47
2022-08-23T10:00:38.123Z,101421.53
2022-08-23T10:05:42.668Z,101425.72
2022-08-23T10:10:52.006Z,101417.63
2022-08-23T10:16:06.959Z,101415.69
2022-08-23T10:21:24.293Z,101415.63
2022-08-23T10:26:33.764Z,101421.72
2022-08-23T10:31:48.704Z,101411.88
2022-08-23T10:37:04.864Z,101418.62
2022-08-23T10:42:21.140Z,101407.03
2022-08-23T10:47:34.899Z,101406.03
2022-08-23T10:52:55.548Z,101400.72
2022-08-23T10:58:01.274Z,101407.63
2022-08-23T11:03:15.794Z,101402.66
2022-08-23T11:08:34.957Z,101402.13
2022-08-23T11:13:40.538Z,101395.31
2022-08-23T11:18:47.783Z,101405.56
2022-08-23T11:23:55.950Z,101401.59
2022-08-23T11:29:30.086Z,101396.25
2022-08-23T11:34:41.604Z,101400.47
2022-08-23T11:40:07.509Z,101399.81
2022-08-23T11:45:26.207Z,101397.28
2022-08-23T11:50:39.232Z,101400.38
2022-08-23T11:56:01.134Z,101402.13
2022-08-23T12:01:08.857Z,101407.44
2022-08-23T12:06:39.171Z,101405.50
2022-08-23T12:12:13.390Z,101388.16
2022-08-23T12:17:51.277Z,101393.00
2022-08-23T12:23:05.651Z,101400.25
2022-08-23T12:28:31.417Z,101396.56
2022-08-23T12:33:45.948Z,101395.63
2022-08-23T12:39:01.749Z,101393.47
2022-08-23T12:44:08.566Z,101391.75
2022-08-23T12:49:27.967Z,101402.84
2022-08-23T12:54:39.370Z,101398.12
2022-08-23T12:59:51.423Z,101412.13
2022-08-23T13:04:57.025Z,101398.34
2022-08-23T13:10:02.793Z,101401.34
2022-08-23T13:15:07.743Z,101394.22
2022-08-23T13:20:21.818Z,101407.47
2022-08-23T13:25:32.149Z,101404.25
2022-08-23T13:30:38.384Z,101398.38
2022-08-23T13:35:44.576Z,101403.91
2022-08-23T13:41:02.323Z,101395.72
2022-08-23T13:46:16.603Z,101394.38
2022-08-23T13:51:30.158Z,101392.84
2022-08-23T13:56:39.560Z,101391.94
2022-08-23T14:01:43.377Z,101394.41
2022-08-23T14:06:48.879Z,101401.09
2022-08-23T14:11:56.559Z,101385.03
2022-08-23T14:17:02.795Z,101380.59
2022-08-23T14:22:07.279Z,101395.41
2022-08-23T14:27:13.268Z,101384.06
2022-08-23T14:32:17.109Z,101383.34
2022-08-23T14:38:00.847Z,101377.84
2022-08-23T14:42:46.802Z,101375.53
2022-08-23T14:47:50.672Z,101379.13
2022-08-23T14:52:54.463Z,101377.59
2022-08-23T14:58:00.096Z,101375.78
2022-08-23T15:03:09.567Z,101386.56
2022-08-23T15:08:13.808Z,101381.97
2022-08-23T15:13:26.095Z,101376.41
2022-08-23T15:18:33.429Z,101374.06
2022-08-23T15:23:37.252Z,101364.06
2022-08-23T15:28:42.652Z,101369.59
2022-08-23T15:33:46.760Z,101371.91
2022-08-23T15:38:52.891Z,101379.53
2022-08-23T15:43:58.114Z,101377.31
2022-08-23T15:49:06.676Z,101377.59
2022-08-23T15:54:11.253Z,101373.44
2022-08-23T15:59:19.214Z,101382.69
2022-08-23T16:04:23.152Z,101380.47
2022-08-23T16:09:28.049Z,101380.53
2022-08-23T16:14:33.525Z,101373.38
2022-08-23T16:19:37.601Z,101378.84
2022-08-23T16:24:41.766Z,101379.31
2022-08-23T16:29:47.000Z,101378.72
2022-08-23T16:34:50.930Z,101370.00
2022-08-23T16:39:54.779Z,101375.56
2022-08-23T16:45:00.230Z,101380.34
2022-08-23T16:50:04.421Z,101382.37
2022-08-23T16:55:11.584Z,101385.34
2022-08-23T17:00:17.285Z,101377.59
2022-08-23T17:05:21.490Z,101387.72
2022-08-23T17:10:25.976Z,101386.09
2022-08-23T17:15:33.486Z,101389.19
2022-08-23T17:20:39.239Z,101384.09
2022-08-23T17:25:47.626Z,101385.31
2022-08-23T17:30:52.719Z,101388.28
2022-08-23T17:35:56.754Z,101391.12
2022-08-23T17:41:00.688Z,101392.22
2022-08-23T17:46:06.318Z,101402.25
2022-08-23T17:51:10.188Z,101404.19
2022-08-23T17:56:14.097Z,101401.75
2022-08-23T18:01:20.291Z,101405.47
2022-08-23T18:06:24.162Z,101422.50
2022-08-23T18:11:27.876Z,101428.84
2022-08-23T18:16:35.593Z,101426.47
2022-08-23T18:21:41.170Z,101431.16
2022-08-23T18:27:02.939Z,101445.66
2022-08-23T18:32:10.679Z,101449.47
2022-08-23T18:37:17.079Z,101456.91
2022-08-23T18:42:20.820Z,101462.44
2022-08-23T18:47:26.491Z,101468.84
2022-08-23T18:52:32.411Z,101476.16
2022-08-23T18:57:36.139Z,101483.41
2022-08-23T19:02:41.216Z,101499.47
2022-08-23T19:07:45.118Z,101496.03
2022-08-23T19:12:54.129Z,101504.09
2022-08-23T19:17:59.645Z,101516.56
2022-08-23T19:23:03.494Z,101521.13
2022-08-23T19:28:07.731Z,101530.06
2022-08-23T19:33:13.336Z,101527.53
2022-08-23T19:38:17.170Z,101541.75
2022-08-23T19:43:21.150Z,101540.97
2022-08-23T19:48:26.526Z,101545.47
2022-08-23T19:53:30.244Z,101551.72
2022-08-23T19:58:34.837Z,101553.53
2022-08-23T20:09:31.530Z,101564.22
2022-08-23T20:14:35.347Z,101561.63
2022-08-23T20:19:41.060Z,101568.72
2022-08-23T20:24:52.474Z,101573.16
2022-08-23T20:29:56.998Z,101572.31
2022-08-23T20:35:02.068Z,101579.41
2022-08-23T20:40:10.080Z,101578.56
2022-08-23T20:45:13.887Z,101571.50
2022-08-23T20:50:17.680Z,101564.47
2022-08-23T20:55:24.070Z,101573.28
2022-08-23T21:00:27.889Z,101565.34
2022-08-23T21:05:31.843Z,101570.66
2022-08-23T21:10:37.178Z,101563.59
2022-08-23T21:15:42.962Z,101570.62
2022-08-23T21:20:47.075Z,101559.19
2022-08-23T21:25:55.748Z,101573.25
2022-08-23T21:31:05.608Z,101581.16
2022-08-23T21:36:10.037Z,101594.34
2022-08-23T21:41:30.540Z,101595.22
2022-08-23T21:46:34.475Z,101603.16
2022-08-23T21:51:39.440Z,101597.81
2022-08-23T21:56:45.816Z,101597.84
2022-08-23T22:01:50.806Z,101608.34
2022-08-23T22:06:56.139Z,101607.47
2022-08-23T22:12:06.520Z,101603.03
2022-08-23T22:17:10.272Z,101609.19
2022-08-23T22:22:15.010Z,101603.00
2022-08-23T22:27:21.155Z,101595.03
2022-08-23T22:32:25.852Z,101599.41
2022-08-23T22:37:29.579Z,101609.94
2022-08-23T22:42:34.936Z,101616.06
2022-08-23T22:47:39.768Z,101609.84
2022-08-23T22:52:43.495Z,101603.66
2022-08-23T22:57:49.716Z,101615.06
2022-08-23T23:02:53.391Z,101603.56
2022-08-23T23:08:29.555Z,101612.31
2022-08-23T23:13:35.502Z,101609.66
2022-08-23T23:18:40.419Z,101613.13
2022-08-23T23:23:44.099Z,101606.06
2022-08-23T23:28:49.309Z,101607.75
2022-08-23T23:33:53.175Z,101608.53
2022-08-23T23:38:57.583Z,101605.00
2022-08-23T23:44:02.884Z,101604.97
2022-08-23T23:49:06.619Z,101605.78
2022-08-23T23:54:10.392Z,101610.13
2022-08-23T23:59:19.972Z,101603.06
